Search for airport 
image banner adimage banner adimage banner ad
image banner ad

PA70 - Fetters Construction

Located in Downingtown, United States

ICAO - PA70, IATA -

Data provided by Airmate  

General information

Coordinates: N40°5'30" W75°42'39"
Elevation is 500 feet MSL.
Magnetic variation is -11° East
View others Airports in Pennsylvania

Operational data

Special qualification required
Current time UTC:
Current local time:
Weather at : KOQN - Brandywine ( 16 km )
METAR: KOQN 182215Z AUTO 23005KT 10SM CLR 25/06 A3027 RMK AO2
View NOTAMs / SUP AIP / TFR affecting this airport [VIEW]
Communications frequencies: [VIEW]

Runways:

RWY identifierQFULength (ft)Width (ft)SurfaceLDA (ft)
051820100GRASS
231820100GRASS

Airport contact information

Address: Downingtown United States

Satellite view of PA70